Time,TemperatureF,DewpointF,PressureIn,WindDirection,WindDirectionDegrees,WindSpeedMPH,WindSpeedGustMPH,Humidity,HourlyPrecipIn,Conditions,Clouds,dailyrainin,SolarRadiationWatts/m^2,SoftwareType,DateUTC
2013-03-24 00:04:00,34.0,32.5,29.88,NE,53,2.5,10.4,94,0.00,RA,SCT,0.00,0.0,WeatherDisplay:10.37,2013-03-24 00:04:00,
2013-03-24 00:09:00,34.0,32.5,29.87,NE,49,5.9,11.5,94,0.00,RA,SCT,0.00,0.0,WeatherDisplay:10.37,2013-03-24 00:09:00,
2013-03-24 00:14:00,34.0,32.5,29.87,NE,34,4.9,5.8,94,0.00,OVC,SCT,0.00,0.0,WeatherDisplay:10.37,2013-03-24 00:14:00,
2013-03-24 00:19:00,34.0,32.5,29.87,NE,52,4.6,10.4,94,0.00,OVC,SCT,0.00,0.0,WeatherDisplay:10.37,2013-03-24 00:19:00,
2013-03-24 00:24:00,33.9,32.4,29.87,NE,37,3.7,8.1,94,0.00,OVC,SCT,0.00,0.0,WeatherDisplay:10.37,2013-03-24 00:24:00,
2013-03-24 00:29:00,33.9,32.6,29.87,NNE,15,9.1,13.0,95,0.00,OVC,SCT,0.00,0.0,WeatherDisplay:10.37,2013-03-24 00:29:00,
2013-03-24 00:34:00,33.9,32.4,29.87,ENE,59,4.0,8.1,94,0.00,OVC,SCT,0.00,0.0,WeatherDisplay:10.37,2013-03-24 00:34:00,
2013-03-24 00:39:00,33.9,32.4,29.87,NE,45,5.7,7.0,94,0.00,OVC,SCT,0.00,0.0,WeatherDisplay:10.37,2013-03-24 00:39:00,
2013-03-24 00:44:00,33.9,32.4,29.87,East,83,4.9,11.5,94,0.00,OVC,SCT,0.00,0.0,WeatherDisplay:10.37,2013-03-24 00:44:00,
2013-03-24 00:49:00,33.9,32.4,29.87,NE,36,6.0,9.2,94,0.00,OVC,SCT,0.00,0.0,WeatherDisplay:10.37,2013-03-24 00:49:00,
2013-03-24 00:54:00,33.9,32.4,29.87,NE,49,7.4,13.8,94,0.00,OVC,SCT,0.00,0.0,WeatherDisplay:10.37,2013-03-24 00:54:00,
2013-03-24 00:59:00,34.0,32.5,29.87,NE,34,5.7,8.1,94,0.00,OVC,SCT,0.00,0.0,WeatherDisplay:10.37,2013-03-24 00:59:00,
2013-03-24 01:04:00,33.9,32.4,29.87,NNE,30,3.7,10.4,94,0.00,OVC,SCT,0.00,0.0,WeatherDisplay:10.37,2013-03-24 01:04:00,
2013-03-24 01:09:00,33.9,32.4,29.87,NE,49,6.8,11.5,94,0.00,OVC,SCT,0.00,0.0,WeatherDisplay:10.37,2013-03-24 01:09:00,
2013-03-24 01:14:00,33.9,32.4,29.87,NE,43,7.1,10.4,94,0.00,OVC,SCT,0.00,0.0,WeatherDisplay:10.37,2013-03-24 01:14:00,
2013-03-24 01:19:00,33.9,32.4,29.87,NE,44,3.8,4.6,94,0.00,OVC,SCT,0.00,0.0,WeatherDisplay:10.37,2013-03-24 01:19:00,
2013-03-24 01:24:00,33.9,32.4,29.87,NE,46,7.7,13.8,94,0.00,OVC,SCT,0.00,0.0,WeatherDisplay:10.37,2013-03-24 01:24:00,
2013-03-24 01:29:00,33.8,32.3,29.87,NE,34,4.6,8.0,94,0.00,OVC,SCT,0.00,0.0,WeatherDisplay:10.37,2013-03-24 01:29:00,
2013-03-24 01:34:00,33.8,32.3,29.87,NE,52,3.4,4.6,94,0.00,OVC,SCT,0.00,0.0,WeatherDisplay:10.37,2013-03-24 01:34:00,
2013-03-24 01:39:00,33.7,32.2,29.87,East,86,5.3,11.5,94,0.00,OVC,SCT,0.00,0.0,WeatherDisplay:10.37,2013-03-24 01:39:00,
2013-03-24 01:44:00,33.7,32.2,29.87,NE,49,6.1,10.4,94,0.00,OVC,SCT,0.00,0.0,WeatherDisplay:10.37,2013-03-24 01:44:00,
2013-03-24 01:49:00,33.6,32.1,29.87,NE,37,6.1,11.5,94,0.00,OVC,SCT,0.00,0.0,WeatherDisplay:10.37,2013-03-24 01:49:00,
2013-03-24 01:54:00,33.5,32.0,29.87,ENE,75,5.6,12.0,94,0.00,OVC,SCT,0.00,0.0,WeatherDisplay:10.37,2013-03-24 01:54:00,
2013-03-24 01:59:00,33.5,32.0,29.87,ENE,69,6.9,12.0,94,0.00,OVC,SCT,0.00,0.0,WeatherDisplay:10.37,2013-03-24 01:59:00,
2013-03-24 02:04:00,33.5,32.0,29.87,NE,38,8.0,16.0,94,0.00,OVC,SCT,0.00,0.0,WeatherDisplay:10.37,2013-03-24 02:04:00,
2013-03-24 02:09:00,33.4,31.6,29.87,NNE,23,6.6,13.8,93,0.00,OVC,SCT,0.00,0.0,WeatherDisplay:10.37,2013-03-24 02:09:00,
2013-03-24 02:14:00,33.4,31.6,29.87,North,10,5.2,6.9,93,0.00,OVC,SCT,0.00,0.0,WeatherDisplay:10.37,2013-03-24 02:14:00,
2013-03-24 02:19:00,33.4,31.6,29.88,ENE,72,6.3,11.5,93,0.00,OVC,SCT,0.00,0.0,WeatherDisplay:10.37,2013-03-24 02:19:00,
2013-03-24 02:24:00,33.4,31.6,29.88,ENE,66,4.4,6.9,93,0.00,OVC,SCT,0.00,0.0,WeatherDisplay:10.37,2013-03-24 02:24:00,
2013-03-24 02:29:00,33.4,31.6,29.88,ENE,58,4.4,11.5,93,0.00,OVC,SCT,0.00,0.0,WeatherDisplay:10.37,2013-03-24 02:29:00,
2013-03-24 02:34:00,33.4,31.6,29.87,East,86,3.1,6.9,93,0.00,OVC,SCT,0.00,0.0,WeatherDisplay:10.37,2013-03-24 02:34:00,
2013-03-24 02:39:00,33.4,31.6,29.87,NE,42,1.7,6.9,93,0.00,OVC,SCT,0.00,0.0,WeatherDisplay:10.37,2013-03-24 02:39:00,
2013-03-24 02:44:00,33.4,31.3,29.87,NE,40,5.7,13.8,92,0.00,OVC,SCT,0.00,0.0,WeatherDisplay:10.37,2013-03-24 02:44:00,
2013-03-24 02:49:00,33.4,31.3,29.87,ENE,63,7.0,12.7,92,0.00,OVC,SCT,0.00,0.0,WeatherDisplay:10.37,2013-03-24 02:49:00,
2013-03-24 02:54:00,33.4,31.3,29.87,East,96,6.9,8.1,92,0.00,OVC,SCT,0.00,0.0,WeatherDisplay:10.37,2013-03-24 02:54:00,
2013-03-24 02:59:00,33.3,31.2,29.87,ENE,65,8.7,12.0,92,0.00,OVC,SCT,0.00,0.0,WeatherDisplay:10.37,2013-03-24 02:59:00,
2013-03-24 03:04:00,33.3,31.2,29.87,NNE,16,6.2,12.7,92,0.00,OVC,SCT,0.00,0.0,WeatherDisplay:10.37,2013-03-24 03:04:00,
2013-03-24 03:09:00,33.3,31.2,29.87,East,84,4.7,13.8,92,0.00,OVC,SCT,0.00,0.0,WeatherDisplay:10.37,2013-03-24 03:09:00,
2013-03-24 03:14:00,33.3,31.2,29.87,ENE,67,7.1,12.0,92,0.00,OVC,SCT,0.00,0.0,WeatherDisplay:10.37,2013-03-24 03:14:00,
2013-03-24 03:19:00,33.3,31.2,29.87,ENE,65,6.2,12.7,92,0.00,OVC,SCT,0.00,0.0,WeatherDisplay:10.37,2013-03-24 03:19:00,
2013-03-24 03:24:00,33.2,31.1,29.87,NE,36,4.2,8.1,92,0.00,OVC,SCT,0.00,0.0,WeatherDisplay:10.37,2013-03-24 03:24:00,
2013-03-24 03:29:00,33.2,31.1,29.87,East,88,7.1,15.0,92,0.00,OVC,SCT,0.00,0.0,WeatherDisplay:10.37,2013-03-24 03:29:00,
2013-03-24 03:34:00,33.2,31.1,29.87,NE,54,2.1,4.0,92,0.00,OVC,SCT,0.00,0.0,WeatherDisplay:10.37,2013-03-24 03:34:00,
2013-03-24 03:39:00,33.2,31.1,29.87,NNE,17,9.7,13.8,92,0.00,OVC,SCT,0.00,0.0,WeatherDisplay:10.37,2013-03-24 03:39:00,
2013-03-24 03:44:00,33.2,30.9,29.87,NE,40,3.5,4.0,91,0.00,OVC,SCT,0.00,0.0,WeatherDisplay:10.37,2013-03-24 03:44:00,
2013-03-24 03:49:00,33.2,31.1,29.87,ENE,59,4.3,6.9,92,0.00,OVC,SCT,0.00,0.0,WeatherDisplay:10.37,2013-03-24 03:49:00,
2013-03-24 03:54:00,33.1,30.8,29.87,NNE,26,6.1,12.7,91,0.00,OVC,SCT,0.00,0.0,WeatherDisplay:10.37,2013-03-24 03:54:00,
2013-03-24 03:59:00,33.1,30.8,29.87,ENE,63,3.5,10.0,91,0.00,OVC,SCT,0.00,0.0,WeatherDisplay:10.37,2013-03-24 03:59:00,
2013-03-24 04:00:00,33.2,30.9,29.87,ENE,71,5.8,8.0,91,0.00,OVC,SCT,0.00,0.0,WeatherDisplay:10.37,2013-03-24 04:00:00,
2013-03-24 04:01:00,33.1,30.8,29.87,NE,36,6.6,10.4,91,0.00,OVC,SCT,0.00,0.0,WeatherDisplay:10.37,2013-03-24 04:01:00,
2013-03-24 04:07:00,33.1,30.8,29.87,NNE,13,6.1,11.5,91,0.00,OVC,SCT,0.00,0.0,WeatherDisplay:10.37,2013-03-24 04:07:00,
2013-03-24 04:12:00,33.1,30.8,29.87,NE,51,4.5,10.0,91,0.00,OVC,SCT,0.00,0.0,WeatherDisplay:10.37,2013-03-24 04:12:00,
2013-03-24 04:17:00,33.1,30.8,29.87,NE,48,7.3,11.5,91,0.00,OVC,SCT,0.00,0.0,WeatherDisplay:10.37,2013-03-24 04:17:00,
2013-03-24 04:22:00,33.0,30.7,29.88,ENE,58,6.0,11.5,91,0.00,OVC,SCT,0.00,0.0,WeatherDisplay:10.37,2013-03-24 04:22:00,
2013-03-24 04:27:00,33.0,30.7,29.88,ENE,76,4.1,10.4,91,0.00,OVC,SCT,0.00,0.0,WeatherDisplay:10.37,2013-03-24 04:27:00,
2013-03-24 04:32:00,32.9,30.6,29.88,NNE,33,4.9,8.1,91,0.00,OVC,SCT,0.00,0.0,WeatherDisplay:10.37,2013-03-24 04:32:00,
2013-03-24 04:37:00,32.9,30.6,29.88,NNE,17,8.3,11.5,91,0.00,OVC,SCT,0.00,0.0,WeatherDisplay:10.37,2013-03-24 04:37:00,
2013-03-24 04:42:00,32.9,30.6,29.88,NNE,32,6.2,13.0,91,0.00,OVC,SCT,0.00,0.0,WeatherDisplay:10.37,2013-03-24 04:42:00,
2013-03-24 04:47:00,32.9,30.6,29.88,NE,44,7.9,17.3,91,0.00,OVC,SCT,0.00,0.0,WeatherDisplay:10.37,2013-03-24 04:47:00,
2013-03-24 04:52:00,32.8,30.5,29.88,NE,44,6.5,11.5,91,0.00,OVC,SCT,0.00,0.0,WeatherDisplay:10.37,2013-03-24 04:52:00,
2013-03-24 04:57:00,32.8,30.5,29.88,NE,53,5.8,8.1,91,0.00,OVC,SCT,0.00,0.0,WeatherDisplay:10.37,2013-03-24 04:57:00,
2013-03-24 05:02:00,32.8,30.5,29.88,ENE,57,2.5,10.4,91,0.00,OVC,SCT,0.00,0.0,WeatherDisplay:10.37,2013-03-24 05:02:00,
2013-03-24 05:07:00,32.8,30.5,29.88,NE,49,8.0,11.5,91,0.00,OVC,SCT,0.00,0.0,WeatherDisplay:10.37,2013-03-24 05:07:00,
2013-03-24 05:13:00,32.7,30.4,29.88,ENE,57,5.3,8.1,91,0.00,OVC,SCT,0.00,0.0,WeatherDisplay:10.37,2013-03-24 05:13:00,
2013-03-24 05:18:00,32.7,30.4,29.88,NE,40,9.7,17.3,91,0.00,OVC,SCT,0.00,0.0,WeatherDisplay:10.37,2013-03-24 05:18:00,
2013-03-24 05:23:00,32.7,30.6,29.88,NE,38,4.7,6.9,92,0.00,OVC,SCT,0.00,0.0,WeatherDisplay:10.37,2013-03-24 05:23:00,
2013-03-24 05:28:00,32.7,30.4,29.88,ENE,61,8.4,11.5,91,0.00,OVC,SCT,0.00,0.0,WeatherDisplay:10.37,2013-03-24 05:28:00,
2013-03-24 05:33:00,32.7,30.6,29.89,NE,53,7.9,7.9,92,0.00,OVC,SCT,0.00,0.0,WeatherDisplay:10.37,2013-03-24 05:33:00,
2013-03-24 05:38:00,32.6,30.3,29.89,NE,46,4.4,11.5,91,0.00,OVC,SCT,0.00,0.0,WeatherDisplay:10.37,2013-03-24 05:38:00,
2013-03-24 05:43:00,32.6,30.3,29.89,NE,49,4.3,8.1,91,0.00,OVC,SCT,0.00,0.0,WeatherDisplay:10.37,2013-03-24 05:43:00,
2013-03-24 05:48:00,32.6,30.3,29.89,NNE,28,3.2,8.1,91,0.00,OVC,SCT,0.00,0.0,WeatherDisplay:10.37,2013-03-24 05:48:00,
2013-03-24 05:53:00,32.6,30.3,29.89,NE,37,5.0,11.5,91,0.00,OVC,SCT,0.00,0.0,WeatherDisplay:10.37,2013-03-24 05:53:00,
2013-03-24 05:58:00,32.6,30.3,29.89,NE,51,4.0,10.4,91,0.00,OVC,SCT,0.00,0.0,WeatherDisplay:10.37,2013-03-24 05:58:00,
2013-03-24 06:03:00,32.6,30.0,29.89,NE,51,4.5,11.0,90,0.00,OVC,SCT,0.00,0.0,WeatherDisplay:10.37,2013-03-24 06:03:00,
2013-03-24 06:08:00,32.6,30.3,29.89,ENE,57,5.0,11.5,91,0.00,OVC,SCT,0.00,0.0,WeatherDisplay:10.37,2013-03-24 06:08:00,
2013-03-24 06:13:00,32.5,29.9,29.89,East,79,8.1,12.7,90,0.00,OVC,SCT,0.00,0.0,WeatherDisplay:10.37,2013-03-24 06:13:00,
2013-03-24 06:18:00,32.5,29.9,29.89,NE,35,6.2,11.5,90,0.00,OVC,SCT,0.00,0.0,WeatherDisplay:10.37,2013-03-24 06:18:00,
2013-03-24 06:23:00,32.5,29.9,29.89,NNE,27,4.4,6.9,90,0.00,OVC,SCT,0.00,0.0,WeatherDisplay:10.37,2013-03-24 06:23:00,
2013-03-24 06:28:00,32.5,29.9,29.89,ENE,58,3.5,8.0,90,0.00,OVC,SCT,0.00,0.0,WeatherDisplay:10.37,2013-03-24 06:28:00,
2013-03-24 06:33:00,32.4,29.8,29.89,NE,45,9.6,12.7,90,0.00,OVC,SCT,0.00,5.0,WeatherDisplay:10.37,2013-03-24 06:33:00,
2013-03-24 06:38:00,32.4,29.8,29.89,ENE,71,7.4,13.8,90,0.00,OVC,SCT,0.00,5.0,WeatherDisplay:10.37,2013-03-24 06:38:00,
2013-03-24 06:43:00,32.3,29.7,29.89,ENE,59,4.2,9.2,90,0.00,OVC,SCT,0.00,5.0,WeatherDisplay:10.37,2013-03-24 06:43:00,
2013-03-24 06:48:00,32.3,30.0,29.89,NE,40,3.9,6.9,91,0.00,OVC,SCT,0.00,7.0,WeatherDisplay:10.37,2013-03-24 06:48:00,
2013-03-24 06:53:00,32.3,30.0,29.89,ENE,69,6.0,10.4,91,0.00,OVC,SCT,0.00,9.0,WeatherDisplay:10.37,2013-03-24 06:53:00,
2013-03-24 06:58:00,32.3,30.0,29.89,East,82,3.0,5.8,91,0.00,OVC,SCT,0.00,11.0,WeatherDisplay:10.37,2013-03-24 06:58:00,
2013-03-24 07:03:00,32.3,30.0,29.89,NE,53,5.5,10.4,91,0.00,OVC,SCT,0.00,11.0,WeatherDisplay:10.37,2013-03-24 07:03:00,
2013-03-24 07:08:00,32.3,30.0,29.89,ENE,77,9.7,13.8,91,0.00,OVC,SCT,0.00,11.0,WeatherDisplay:10.37,2013-03-24 07:08:00,
2013-03-24 07:13:00,32.3,30.0,29.90,NNE,12,5.3,8.1,91,0.00,OVC,SCT,0.00,12.0,WeatherDisplay:10.37,2013-03-24 07:13:00,
2013-03-24 07:18:00,32.3,30.0,29.90,NE,42,7.0,11.5,91,0.00,OVC,SCT,0.00,14.0,WeatherDisplay:10.37,2013-03-24 07:18:00,
2013-03-24 07:23:00,32.2,29.9,29.90,NE,37,8.7,17.3,91,0.00,OVC,SCT,0.00,16.0,WeatherDisplay:10.37,2013-03-24 07:23:00,
2013-03-24 07:28:00,32.2,29.9,29.90,NE,40,7.8,11.5,91,0.00,OVC,SCT,0.00,14.0,WeatherDisplay:10.37,2013-03-24 07:28:00,
2013-03-24 07:33:00,32.1,29.8,29.90,NE,47,6.9,21.9,91,0.00,OVC,SCT,0.00,19.0,WeatherDisplay:10.37,2013-03-24 07:33:00,
2013-03-24 07:38:00,32.1,29.8,29.89,NE,44,5.7,11.5,91,0.00,OVC,SCT,0.00,28.0,WeatherDisplay:10.37,2013-03-24 07:38:00,
2013-03-24 07:43:00,32.1,29.8,29.89,NE,36,4.1,11.5,91,0.00,OVC,SCT,0.00,28.0,WeatherDisplay:10.37,2013-03-24 07:43:00,
2013-03-24 07:48:00,32.2,29.9,29.90,NE,41,3.9,6.9,91,0.00,OVC,SCT,0.00,19.0,WeatherDisplay:10.37,2013-03-24 07:48:00,
2013-03-24 07:53:00,32.2,29.9,29.90,ENE,58,7.3,12.7,91,0.00,OVC,SCT,0.00,30.0,WeatherDisplay:10.37,2013-03-24 07:53:00,
2013-03-24 07:58:00,32.2,29.9,29.90,NE,40,3.1,3.5,91,0.00,OVC,SCT,0.00,37.0,WeatherDisplay:10.37,2013-03-24 07:58:00,
2013-03-24 08:03:00,32.2,29.9,29.89,ESE,108,5.1,11.5,91,0.00,OVC,SCT,0.00,44.0,WeatherDisplay:10.37,2013-03-24 08:03:00,
2013-03-24 08:08:00,32.2,29.6,29.90,NE,45,4.8,8.1,90,0.00,OVC,SCT,0.00,35.0,WeatherDisplay:10.37,2013-03-24 08:08:00,
2013-03-24 08:13:00,32.3,29.7,29.90,NE,42,5.2,10.4,90,0.00,OVC,SCT,0.00,35.0,WeatherDisplay:10.37,2013-03-24 08:13:00,
2013-03-24 08:18:00,32.2,29.6,29.90,NNE,29,5.4,8.1,90,0.00,OVC,SCT,0.00,47.0,WeatherDisplay:10.37,2013-03-24 08:18:00,
2013-03-24 08:23:00,32.2,29.6,29.90,NNE,25,5.9,11.5,90,0.00,OVC,SCT,0.00,49.0,WeatherDisplay:10.37,2013-03-24 08:23:00,
2013-03-24 08:28:00,32.2,29.6,29.90,NNE,31,3.0,5.0,90,0.00,OVC,SCT,0.00,51.0,WeatherDisplay:10.37,2013-03-24 08:28:00,
2013-03-24 08:33:00,32.2,29.6,29.90,ENE,61,5.6,9.2,90,0.00,OVC,SCT,0.00,54.0,WeatherDisplay:10.37,2013-03-24 08:33:00,
2013-03-24 08:38:00,32.2,29.6,29.90,NNE,31,8.6,15.0,90,0.00,OVC,SCT,0.00,62.0,WeatherDisplay:10.37,2013-03-24 08:38:00,
2013-03-24 08:43:00,32.2,29.3,29.90,ENE,64,10.6,16.1,89,0.00,OVC,SCT,0.00,56.0,WeatherDisplay:10.37,2013-03-24 08:43:00,
2013-03-24 08:48:00,32.3,29.4,29.90,NNW,329,8.6,12.7,89,0.00,OVC,SCT,0.00,62.0,WeatherDisplay:10.37,2013-03-24 08:48:00,
2013-03-24 08:53:00,32.3,29.4,29.90,NE,38,6.1,9.2,89,0.00,OVC,SCT,0.00,60.0,WeatherDisplay:10.37,2013-03-24 08:53:00,
2013-03-24 08:58:00,32.3,29.4,29.90,NE,49,7.3,18.4,89,0.00,OVC,SCT,0.00,60.0,WeatherDisplay:10.37,2013-03-24 08:58:00,
2013-03-24 09:03:00,32.3,29.1,29.91,ENE,63,7.0,13.8,88,0.00,OVC,SCT,0.00,56.0,WeatherDisplay:10.37,2013-03-24 09:03:00,
2013-03-24 09:08:00,32.3,29.1,29.91,NE,42,5.1,12.0,88,0.00,OVC,SCT,0.00,58.0,WeatherDisplay:10.37,2013-03-24 09:08:00,
2013-03-24 09:13:00,32.3,29.1,29.91,NE,42,8.7,17.3,88,0.00,OVC,SCT,0.00,58.0,WeatherDisplay:10.37,2013-03-24 09:13:00,
2013-03-24 09:18:00,32.4,29.2,29.91,NE,52,7.9,11.5,88,0.00,OVC,SCT,0.00,47.0,WeatherDisplay:10.37,2013-03-24 09:18:00,
2013-03-24 09:23:00,32.3,29.1,29.91,NE,49,5.2,8.1,88,0.00,OVC,SCT,0.00,42.0,WeatherDisplay:10.37,2013-03-24 09:23:00,
2013-03-24 09:28:00,32.4,29.2,29.91,NE,44,4.4,5.8,88,0.00,OVC,SCT,0.00,42.0,WeatherDisplay:10.37,2013-03-24 09:28:00,
2013-03-24 09:33:00,32.3,29.1,29.91,NNE,19,9.1,16.0,88,0.00,OVC,SCT,0.00,44.0,WeatherDisplay:10.37,2013-03-24 09:33:00,
2013-03-24 09:38:00,32.3,29.1,29.91,NE,34,10.1,17.3,88,0.00,OVC,SCT,0.00,49.0,WeatherDisplay:10.37,2013-03-24 09:38:00,
2013-03-24 09:43:00,32.1,28.9,29.91,NE,36,7.7,12.7,88,0.00,OVC,SCT,0.00,47.0,WeatherDisplay:10.37,2013-03-24 09:43:00,
2013-03-24 09:48:00,32.1,29.2,29.91,ENE,68,5.9,17.3,89,0.00,OVC,SCT,0.00,49.0,WeatherDisplay:10.37,2013-03-24 09:48:00,
2013-03-24 09:53:00,32.1,29.2,29.91,NE,51,6.0,10.4,89,0.00,OVC,SCT,0.00,53.0,WeatherDisplay:10.37,2013-03-24 09:53:00,
2013-03-24 09:58:00,32.1,29.2,29.91,ENE,74,8.5,12.7,89,0.00,OVC,SCT,0.00,51.0,WeatherDisplay:10.37,2013-03-24 09:58:00,
2013-03-24 10:03:00,32.0,29.1,29.91,NE,45,9.1,13.8,89,0.00,OVC,SCT,0.00,49.0,WeatherDisplay:10.37,2013-03-24 10:03:00,
2013-03-24 10:08:00,32.0,29.1,29.91,ENE,60,5.0,11.5,89,0.00,OVC,SCT,0.00,49.0,WeatherDisplay:10.37,2013-03-24 10:08:00,
2013-03-24 10:13:00,32.0,29.1,29.91,NE,52,3.7,11.5,89,0.00,OVC,SCT,0.00,49.0,WeatherDisplay:10.37,2013-03-24 10:13:00,
2013-03-24 10:18:00,32.0,29.1,29.91,ENE,68,5.7,13.8,89,0.00,OVC,SCT,0.00,49.0,WeatherDisplay:10.37,2013-03-24 10:18:00,
2013-03-24 10:23:00,31.9,29.0,29.92,North,9,9.5,13.8,89,0.00,OVC,SCT,0.00,58.0,WeatherDisplay:10.37,2013-03-24 10:23:00,
2013-03-24 10:28:00,31.9,29.0,29.92,ENE,64,8.2,15.0,89,0.00,OVC,SCT,0.00,53.0,WeatherDisplay:10.37,2013-03-24 10:28:00,
2013-03-24 10:33:00,32.0,28.8,29.92,ENE,71,6.9,15.0,88,0.00,OVC,SCT,0.00,49.0,WeatherDisplay:10.37,2013-03-24 10:33:00,
2013-03-24 10:38:00,32.0,28.8,29.91,NNE,32,6.4,9.2,88,0.00,OVC,SCT,0.00,60.0,WeatherDisplay:10.37,2013-03-24 10:38:00,
2013-03-24 10:43:00,32.0,28.8,29.91,ENE,67,6.1,10.0,88,0.00,OVC,SCT,0.00,54.0,WeatherDisplay:10.37,2013-03-24 10:43:00,
2013-03-24 10:48:00,32.1,28.9,29.91,NNE,29,4.5,8.1,88,0.00,OVC,SCT,0.00,58.0,WeatherDisplay:10.37,2013-03-24 10:48:00,
2013-03-24 10:53:00,32.2,29.0,29.91,NE,55,4.7,10.4,88,0.00,OVC,SCT,0.00,62.0,WeatherDisplay:10.37,2013-03-24 10:53:00,
2013-03-24 10:58:00,32.1,28.7,29.91,ENE,63,6.5,18.0,87,0.00,OVC,SCT,0.00,70.0,WeatherDisplay:10.37,2013-03-24 10:58:00,
2013-03-24 11:03:00,32.1,28.7,29.91,ENE,64,7.4,11.5,87,0.00,OVC,SCT,0.00,63.0,WeatherDisplay:10.37,2013-03-24 11:03:00,
2013-03-24 11:08:00,32.2,29.0,29.91,NNE,21,5.7,12.7,88,0.00,OVC,SCT,0.00,69.0,WeatherDisplay:10.37,2013-03-24 11:08:00,
2013-03-24 11:13:00,32.2,29.0,29.91,NNE,29,6.9,15.0,88,0.00,OVC,SCT,0.00,83.0,WeatherDisplay:10.37,2013-03-24 11:13:00,
2013-03-24 11:18:00,32.2,28.8,29.91,ENE,65,10.1,17.3,87,0.00,OVC,SCT,0.00,84.0,WeatherDisplay:10.37,2013-03-24 11:18:00,
2013-03-24 11:23:00,32.2,28.8,29.91,NNE,32,5.8,11.5,87,0.00,OVC,SCT,0.00,70.0,WeatherDisplay:10.37,2013-03-24 11:23:00,
2013-03-24 11:28:00,32.3,28.9,29.91,NE,38,8.3,13.8,87,0.00,OVC,SCT,0.00,83.0,WeatherDisplay:10.37,2013-03-24 11:28:00,
2013-03-24 11:33:00,32.2,29.0,29.91,ENE,72,5.0,11.5,88,0.00,BKN,SCT,0.00,54.0,WeatherDisplay:10.37,2013-03-24 11:33:00,
2013-03-24 11:38:00,32.2,29.0,29.91,ENE,59,3.4,8.1,88,0.00,BKN,SCT,0.00,77.0,WeatherDisplay:10.37,2013-03-24 11:38:00,
2013-03-24 11:43:00,32.2,29.0,29.91,NE,43,4.1,6.0,88,0.00,BKN,SCT,0.00,70.0,WeatherDisplay:10.37,2013-03-24 11:43:00,
2013-03-24 11:48:00,32.1,28.9,29.91,NE,52,7.0,11.5,88,0.00,BKN,SCT,0.00,67.0,WeatherDisplay:10.37,2013-03-24 11:48:00,
2013-03-24 11:53:00,32.1,28.9,29.91,NE,45,8.4,17.3,88,0.00,BKN,SCT,0.00,63.0,WeatherDisplay:10.37,2013-03-24 11:53:00,
2013-03-24 11:58:00,32.1,28.9,29.91,ENE,76,7.0,10.0,88,0.00,BKN,SCT,0.00,63.0,WeatherDisplay:10.37,2013-03-24 11:58:00,
2013-03-24 12:03:00,32.0,28.8,29.91,East,90,5.5,12.7,88,0.00,OVC,SCT,0.00,56.0,WeatherDisplay:10.37,2013-03-24 12:03:00,
2013-03-24 12:08:00,32.0,28.8,29.92,NE,55,5.5,15.0,88,0.00,OVC,SCT,0.00,60.0,WeatherDisplay:10.37,2013-03-24 12:08:00,
2013-03-24 12:13:00,32.0,29.1,29.91,ESE,109,5.3,10.4,89,0.00,OVC,SCT,0.00,67.0,WeatherDisplay:10.37,2013-03-24 12:13:00,
2013-03-24 12:18:00,31.9,29.0,29.91,NNE,23,5.8,11.5,89,0.00,OVC,SCT,0.00,58.0,WeatherDisplay:10.37,2013-03-24 12:18:00,
2013-03-24 12:23:00,31.9,28.8,29.92,NE,49,6.8,12.7,88,0.00,OVC,SCT,0.00,54.0,WeatherDisplay:10.37,2013-03-24 12:23:00,
2013-03-24 12:28:00,31.8,28.7,29.92,ENE,57,14.4,19.0,88,0.00,OVC,SCT,0.00,58.0,WeatherDisplay:10.37,2013-03-24 12:28:00,
2013-03-24 12:33:00,31.7,28.6,29.92,ENE,62,9.8,17.3,88,0.00,OVC,SCT,0.00,58.0,WeatherDisplay:10.37,2013-03-24 12:33:00,
2013-03-24 12:38:00,31.7,28.6,29.91,NE,44,6.7,15.0,88,0.00,OVC,SCT,0.00,58.0,WeatherDisplay:10.37,2013-03-24 12:38:00,
2013-03-24 12:43:00,31.7,28.6,29.92,NNE,26,5.6,9.2,88,0.00,OVC,SCT,0.00,58.0,WeatherDisplay:10.37,2013-03-24 12:43:00,
2013-03-24 12:48:00,31.7,28.6,29.92,ENE,60,7.3,15.0,88,0.00,OVC,SCT,0.00,58.0,WeatherDisplay:10.37,2013-03-24 12:48:00,
2013-03-24 12:53:00,31.7,28.6,29.92,ENE,73,9.6,11.5,88,0.00,OVC,SCT,0.00,54.0,WeatherDisplay:10.37,2013-03-24 12:53:00,
2013-03-24 12:58:00,31.7,28.6,29.92,NNE,29,9.6,14.0,88,0.00,OVC,SCT,0.00,58.0,WeatherDisplay:10.37,2013-03-24 12:58:00,
2013-03-24 13:03:00,31.7,28.6,29.91,East,98,9.9,16.1,88,0.00,OVC,SCT,0.00,54.0,WeatherDisplay:10.37,2013-03-24 13:03:00,
2013-03-24 13:08:00,31.6,28.5,29.92,ENE,57,13.1,18.4,88,0.00,OVC,SCT,0.00,62.0,WeatherDisplay:10.37,2013-03-24 13:08:00,
2013-03-24 13:14:00,31.6,28.5,29.92,ENE,66,7.6,12.7,88,0.00,OVC,SCT,0.00,54.0,WeatherDisplay:10.37,2013-03-24 13:14:00,
2013-03-24 13:19:00,31.6,28.5,29.92,NNE,32,7.3,12.7,88,0.00,OVC,SCT,0.00,60.0,WeatherDisplay:10.37,2013-03-24 13:19:00,
2013-03-24 13:24:00,31.7,28.6,29.92,ENE,59,4.6,6.9,88,0.00,OVC,SCT,0.00,58.0,WeatherDisplay:10.37,2013-03-24 13:24:00,
2013-03-24 13:29:00,31.7,28.8,29.92,NE,48,7.7,12.0,89,0.00,OVC,SCT,0.00,62.0,WeatherDisplay:10.37,2013-03-24 13:29:00,
2013-03-24 13:34:00,31.7,28.6,29.92,NNE,32,7.6,11.5,88,0.00,BKN,SCT,0.00,56.0,WeatherDisplay:10.37,2013-03-24 13:34:00,
2013-03-24 13:39:00,31.7,28.6,29.92,NE,42,11.4,20.0,88,0.00,BKN,SCT,0.00,51.0,WeatherDisplay:10.37,2013-03-24 13:39:00,
2013-03-24 13:44:00,31.7,28.3,29.92,NE,44,11.5,17.3,87,0.00,BKN,SCT,0.00,58.0,WeatherDisplay:10.37,2013-03-24 13:44:00,
2013-03-24 13:49:00,31.7,28.6,29.92,NE,41,7.7,18.4,88,0.00,BKN,SCT,0.00,53.0,WeatherDisplay:10.37,2013-03-24 13:49:00,
2013-03-24 13:54:00,31.7,28.6,29.91,ENE,57,7.6,13.8,88,0.00,BKN,SCT,0.00,51.0,WeatherDisplay:10.37,2013-03-24 13:54:00,
2013-03-24 13:59:00,31.6,28.5,29.91,NE,51,7.9,12.0,88,0.00,BKN,SCT,0.00,54.0,WeatherDisplay:10.37,2013-03-24 13:59:00,
2013-03-24 14:04:00,31.6,28.5,29.91,ENE,60,3.6,11.5,88,0.00,BKN,SCT,0.00,54.0,WeatherDisplay:10.37,2013-03-24 14:04:00,
2013-03-24 14:09:00,31.6,28.2,29.91,NNE,31,8.4,17.3,87,0.00,BKN,SCT,0.00,54.0,WeatherDisplay:10.37,2013-03-24 14:09:00,
2013-03-24 14:14:00,31.6,28.2,29.92,ENE,59,9.0,13.8,87,0.00,BKN,SCT,0.00,51.0,WeatherDisplay:10.37,2013-03-24 14:14:00,
2013-03-24 14:19:00,31.5,28.1,29.92,NE,45,7.8,13.0,87,0.00,BKN,SCT,0.00,53.0,WeatherDisplay:10.37,2013-03-24 14:19:00,
2013-03-24 14:24:00,31.5,28.1,29.92,NE,46,7.9,13.8,87,0.00,BKN,SCT,0.00,47.0,WeatherDisplay:10.37,2013-03-24 14:24:00,
2013-03-24 14:29:00,31.5,28.1,29.92,NE,48,7.0,18.4,87,0.00,BKN,SCT,0.00,49.0,WeatherDisplay:10.37,2013-03-24 14:29:00,
2013-03-24 14:34:00,31.5,28.1,29.91,ENE,69,4.1,6.0,87,0.00,BKN,SCT,0.00,46.0,WeatherDisplay:10.37,2013-03-24 14:34:00,
2013-03-24 14:39:00,31.5,28.1,29.92,NE,41,5.5,12.7,87,0.00,BKN,SCT,0.00,51.0,WeatherDisplay:10.37,2013-03-24 14:39:00,
2013-03-24 14:44:00,31.5,27.8,29.92,NE,56,6.9,17.3,86,0.00,BKN,SCT,0.00,40.0,WeatherDisplay:10.37,2013-03-24 14:44:00,
2013-03-24 14:49:00,31.5,27.8,29.92,NE,40,5.4,10.4,86,0.00,BKN,SCT,0.00,42.0,WeatherDisplay:10.37,2013-03-24 14:49:00,
2013-03-24 14:54:00,31.5,28.1,29.92,NE,47,5.3,11.5,87,0.00,BKN,SCT,0.00,42.0,WeatherDisplay:10.37,2013-03-24 14:54:00,
2013-03-24 14:59:00,31.6,27.9,29.92,ENE,72,4.8,6.9,86,0.00,BKN,SCT,0.00,42.0,WeatherDisplay:10.37,2013-03-24 14:59:00,
2013-03-24 15:04:00,31.6,27.9,29.92,NE,44,5.7,13.8,86,0.00,BKN,SCT,0.00,33.0,WeatherDisplay:10.37,2013-03-24 15:04:00,
2013-03-24 15:09:00,31.6,27.9,29.92,NE,54,3.4,5.0,86,0.00,BKN,SCT,0.00,28.0,WeatherDisplay:10.37,2013-03-24 15:09:00,
2013-03-24 15:14:00,31.6,27.9,29.92,ENE,71,5.7,11.5,86,0.00,BKN,SCT,0.00,28.0,WeatherDisplay:10.37,2013-03-24 15:14:00,
2013-03-24 15:19:00,31.6,27.9,29.92,NNE,23,6.3,10.4,86,0.00,BKN,SCT,0.00,44.0,WeatherDisplay:10.37,2013-03-24 15:19:00,
2013-03-24 15:24:00,31.6,27.9,29.92,ENE,58,5.4,8.1,86,0.00,BKN,SCT,0.00,35.0,WeatherDisplay:10.37,2013-03-24 15:24:00,
2013-03-24 15:29:00,31.7,28.0,29.92,ENE,66,5.7,13.8,86,0.00,BKN,SCT,0.00,32.0,WeatherDisplay:10.37,2013-03-24 15:29:00,
2013-03-24 15:34:00,31.7,28.0,29.92,East,98,7.5,11.5,86,0.00,OVC,SCT,0.00,42.0,WeatherDisplay:10.37,2013-03-24 15:34:00,
2013-03-24 15:39:00,31.7,28.0,29.92,NE,37,7.9,15.0,86,0.00,OVC,SCT,0.00,37.0,WeatherDisplay:10.37,2013-03-24 15:39:00,
2013-03-24 15:44:00,31.7,28.0,29.92,NE,53,7.5,17.3,86,0.00,OVC,SCT,0.00,26.0,WeatherDisplay:10.37,2013-03-24 15:44:00,
2013-03-24 15:49:00,31.6,27.9,29.92,NE,48,6.4,14.0,86,0.00,OVC,SCT,0.00,26.0,WeatherDisplay:10.37,2013-03-24 15:49:00,
2013-03-24 15:54:00,31.5,27.8,29.92,NE,56,7.7,16.1,86,0.00,OVC,SCT,0.00,28.0,WeatherDisplay:10.37,2013-03-24 15:54:00,
2013-03-24 15:59:00,31.5,27.8,29.92,ENE,64,6.2,8.1,86,0.00,OVC,SCT,0.00,32.0,WeatherDisplay:10.37,2013-03-24 15:59:00,
2013-03-24 16:04:00,31.4,27.7,29.92,NE,38,3.7,11.5,86,0.00,BKN,SCT,0.00,32.0,WeatherDisplay:10.37,2013-03-24 16:04:00,
2013-03-24 16:09:00,31.4,27.4,29.92,NE,46,8.0,12.7,85,0.00,BKN,SCT,0.00,30.0,WeatherDisplay:10.37,2013-03-24 16:09:00,
2013-03-24 16:14:00,31.4,27.4,29.92,ENE,74,5.4,12.7,85,0.00,BKN,SCT,0.00,33.0,WeatherDisplay:10.37,2013-03-24 16:14:00,
2013-03-24 16:19:00,31.5,27.8,29.92,ENE,76,6.9,13.8,86,0.00,BKN,SCT,0.00,47.0,WeatherDisplay:10.37,2013-03-24 16:19:00,
2013-03-24 16:24:00,31.5,27.5,29.92,ENE,69,4.7,13.8,85,0.00,BKN,SCT,0.00,37.0,WeatherDisplay:10.37,2013-03-24 16:24:00,
2013-03-24 16:29:00,31.6,27.6,29.92,East,85,7.0,11.5,85,0.00,BKN,SCT,0.00,46.0,WeatherDisplay:10.37,2013-03-24 16:29:00,
2013-03-24 16:34:00,31.6,27.6,29.92,North,11,7.0,12.7,85,0.00,BKN,SCT,0.00,40.0,WeatherDisplay:10.37,2013-03-24 16:34:00,
2013-03-24 16:39:00,31.6,27.6,29.92,NE,36,4.9,6.9,85,0.00,BKN,SCT,0.00,32.0,WeatherDisplay:10.37,2013-03-24 16:39:00,
2013-03-24 16:44:00,31.6,27.6,29.92,NE,55,8.4,13.0,85,0.00,BKN,SCT,0.00,30.0,WeatherDisplay:10.37,2013-03-24 16:44:00,
2013-03-24 16:49:00,31.6,27.3,29.92,ENE,61,8.1,16.0,84,0.00,BKN,SCT,0.00,28.0,WeatherDisplay:10.37,2013-03-24 16:49:00,
2013-03-24 16:54:00,31.5,27.5,29.92,NNE,17,6.9,11.5,85,0.00,BKN,SCT,0.00,33.0,WeatherDisplay:10.37,2013-03-24 16:54:00,
2013-03-24 16:59:00,31.5,27.5,29.92,NE,34,5.0,6.9,85,0.00,BKN,SCT,0.00,37.0,WeatherDisplay:10.37,2013-03-24 16:59:00,
2013-03-24 17:04:00,31.5,27.5,29.92,NNE,28,5.8,11.5,85,0.00,BKN,SCT,0.00,47.0,WeatherDisplay:10.37,2013-03-24 17:04:00,
2013-03-24 17:09:00,31.6,27.3,29.93,NE,38,7.9,15.0,84,0.00,BKN,SCT,0.00,49.0,WeatherDisplay:10.37,2013-03-24 17:09:00,
2013-03-24 17:14:00,31.7,27.4,29.93,NE,56,9.2,17.3,84,0.00,BKN,SCT,0.00,53.0,WeatherDisplay:10.37,2013-03-24 17:14:00,
2013-03-24 17:19:00,31.7,27.1,29.93,NE,36,5.8,11.5,83,0.00,BKN,SCT,0.00,44.0,WeatherDisplay:10.37,2013-03-24 17:19:00,
2013-03-24 17:24:00,31.8,27.2,29.93,NE,53,6.0,10.4,83,0.00,BKN,SCT,0.00,44.0,WeatherDisplay:10.37,2013-03-24 17:24:00,
2013-03-24 17:29:00,31.8,27.2,29.93,ENE,69,8.2,12.7,83,0.00,BKN,SCT,0.00,42.0,WeatherDisplay:10.37,2013-03-24 17:29:00,
2013-03-24 17:34:00,31.9,27.3,29.93,ENE,74,5.2,8.1,83,0.00,BKN,SCT,0.00,42.0,WeatherDisplay:10.37,2013-03-24 17:34:00,
2013-03-24 17:39:00,31.9,27.3,29.93,NE,52,4.6,6.9,83,0.00,BKN,SCT,0.00,40.0,WeatherDisplay:10.37,2013-03-24 17:39:00,
2013-03-24 17:44:00,32.0,27.4,29.93,NE,42,5.0,9.2,83,0.00,BKN,SCT,0.00,32.0,WeatherDisplay:10.37,2013-03-24 17:44:00,
2013-03-24 17:49:00,32.0,27.4,29.93,NNE,26,5.8,10.4,83,0.00,BKN,SCT,0.00,25.0,WeatherDisplay:10.37,2013-03-24 17:49:00,
2013-03-24 17:54:00,32.0,27.4,29.94,NNE,26,7.2,12.0,83,0.00,BKN,SCT,0.00,21.0,WeatherDisplay:10.37,2013-03-24 17:54:00,
2013-03-24 17:59:00,32.0,27.4,29.94,NE,34,6.9,11.0,83,0.00,BKN,SCT,0.00,16.0,WeatherDisplay:10.37,2013-03-24 17:59:00,
2013-03-24 18:04:00,32.0,27.4,29.94,North,5,5.5,8.1,83,0.00,BKN,SCT,0.00,12.0,WeatherDisplay:10.37,2013-03-24 18:04:00,
2013-03-24 18:09:00,32.0,27.1,29.94,NE,45,3.5,6.9,82,0.00,BKN,SCT,0.00,9.0,WeatherDisplay:10.37,2013-03-24 18:09:00,
2013-03-24 18:14:00,32.0,27.1,29.94,North,11,2.3,4.6,82,0.00,BKN,SCT,0.00,7.0,WeatherDisplay:10.37,2013-03-24 18:14:00,
2013-03-24 18:19:00,32.0,27.1,29.94,NNE,33,3.5,5.0,82,0.00,BKN,SCT,0.00,0.0,WeatherDisplay:10.37,2013-03-24 18:19:00,
2013-03-24 18:24:00,32.0,27.1,29.94,NE,41,2.4,8.1,82,0.00,BKN,SCT,0.00,0.0,WeatherDisplay:10.37,2013-03-24 18:24:00,
2013-03-24 18:29:00,32.0,27.1,29.94,NE,51,4.4,6.9,82,0.00,BKN,SCT,0.00,0.0,WeatherDisplay:10.37,2013-03-24 18:29:00,
2013-03-24 18:34:00,32.1,27.2,29.94,NE,55,6.4,11.5,82,0.00,BKN,SCT,0.00,0.0,WeatherDisplay:10.37,2013-03-24 18:34:00,
2013-03-24 18:39:00,32.1,26.9,29.94,NNE,21,4.9,9.0,81,0.00,BKN,SCT,0.00,0.0,WeatherDisplay:10.37,2013-03-24 18:39:00,
2013-03-24 18:44:00,32.1,26.9,29.94,NNE,19,8.2,10.4,81,0.00,BKN,SCT,0.00,0.0,WeatherDisplay:10.37,2013-03-24 18:44:00,
2013-03-24 18:49:00,32.1,26.9,29.94,NE,51,3.6,6.9,81,0.00,BKN,SCT,0.00,0.0,WeatherDisplay:10.37,2013-03-24 18:49:00,
2013-03-24 18:54:00,32.2,27.0,29.94,NNE,24,2.7,4.0,81,0.00,BKN,SCT,0.00,0.0,WeatherDisplay:10.37,2013-03-24 18:54:00,
2013-03-24 18:59:00,32.2,26.7,29.94,NNE,28,3.7,5.0,80,0.00,BKN,SCT,0.00,0.0,WeatherDisplay:10.37,2013-03-24 18:59:00,
2013-03-24 19:04:00,32.3,26.8,29.94,NNE,27,3.8,5.8,80,0.00,BKN,SCT,0.00,0.0,WeatherDisplay:10.37,2013-03-24 19:04:00,
2013-03-24 19:09:00,32.3,26.5,29.94,ENE,67,5.5,8.1,79,0.00,BKN,SCT,0.00,0.0,WeatherDisplay:10.37,2013-03-24 19:09:00,
2013-03-24 19:14:00,32.4,26.6,29.94,NE,49,5.1,7.0,79,0.00,BKN,SCT,0.00,0.0,WeatherDisplay:10.37,2013-03-24 19:14:00,
2013-03-24 19:19:00,32.5,26.1,29.94,NE,39,6.2,11.5,77,0.00,BKN,SCT,0.00,0.0,WeatherDisplay:10.37,2013-03-24 19:19:00,
2013-03-24 19:24:00,32.6,25.9,29.95,NE,49,4.3,12.7,76,0.00,BKN,SCT,0.00,0.0,WeatherDisplay:10.37,2013-03-24 19:24:00,
2013-03-24 19:29:00,32.6,25.9,29.95,NE,40,3.2,4.6,76,0.00,BKN,SCT,0.00,0.0,WeatherDisplay:10.37,2013-03-24 19:29:00,
2013-03-24 19:34:00,32.7,26.0,29.95,NE,42,5.9,9.0,76,0.00,BKN,SCT,0.00,0.0,WeatherDisplay:10.37,2013-03-24 19:34:00,
2013-03-24 19:39:00,32.7,26.0,29.95,NE,38,2.9,4.6,76,0.00,BKN,SCT,0.00,0.0,WeatherDisplay:10.37,2013-03-24 19:39:00,
2013-03-24 19:44:00,32.8,26.1,29.95,NE,45,3.6,10.0,76,0.00,BKN,SCT,0.00,0.0,WeatherDisplay:10.37,2013-03-24 19:44:00,
2013-03-24 19:49:00,32.8,26.1,29.95,NNE,32,4.8,9.0,76,0.00,BKN,SCT,0.00,0.0,WeatherDisplay:10.37,2013-03-24 19:49:00,
2013-03-24 19:54:00,32.8,25.7,29.95,NNE,24,4.0,8.1,75,0.00,BKN,SCT,0.00,0.0,WeatherDisplay:10.37,2013-03-24 19:54:00,
2013-03-24 19:59:00,32.8,25.7,29.95,NNE,33,5.8,10.4,75,0.00,BKN,SCT,0.00,0.0,WeatherDisplay:10.37,2013-03-24 19:59:00,
2013-03-24 20:04:00,32.9,25.5,29.95,NNE,24,6.3,10.4,74,0.00,BKN,SCT,0.00,0.0,WeatherDisplay:10.37,2013-03-24 20:04:00,
2013-03-24 20:09:00,32.9,25.5,29.95,NE,40,4.1,11.5,74,0.00,BKN,SCT,0.00,0.0,WeatherDisplay:10.37,2013-03-24 20:09:00,
2013-03-24 20:14:00,32.9,25.5,29.95,NNE,22,6.5,10.4,74,0.00,BKN,SCT,0.00,0.0,WeatherDisplay:10.37,2013-03-24 20:14:00,
2013-03-24 20:19:00,32.9,25.5,29.95,NE,41,4.8,8.1,74,0.00,BKN,SCT,0.00,0.0,WeatherDisplay:10.37,2013-03-24 20:19:00,
2013-03-24 20:24:00,32.9,25.5,29.95,NE,34,2.7,4.6,74,0.00,BKN,SCT,0.00,0.0,WeatherDisplay:10.37,2013-03-24 20:24:00,
2013-03-24 20:29:00,33.0,25.6,29.95,NE,44,5.0,9.2,74,0.00,BKN,SCT,0.00,0.0,WeatherDisplay:10.37,2013-03-24 20:29:00,
2013-03-24 20:34:00,32.9,25.5,29.95,NNE,13,8.2,11.5,74,0.00,BKN,SCT,0.00,0.0,WeatherDisplay:10.37,2013-03-24 20:34:00,
2013-03-24 20:39:00,33.0,25.6,29.95,ENE,60,7.4,11.5,74,0.00,BKN,SCT,0.00,0.0,WeatherDisplay:10.37,2013-03-24 20:39:00,
2013-03-24 20:44:00,33.0,25.6,29.95,ENE,67,6.3,7.0,74,0.00,BKN,SCT,0.00,0.0,WeatherDisplay:10.37,2013-03-24 20:44:00,
2013-03-24 20:49:00,33.0,25.3,29.95,NNE,32,5.2,10.4,73,0.00,BKN,SCT,0.00,0.0,WeatherDisplay:10.37,2013-03-24 20:49:00,
2013-03-24 20:54:00,33.0,25.3,29.95,North,360,3.0,8.1,73,0.00,BKN,SCT,0.00,0.0,WeatherDisplay:10.37,2013-03-24 20:54:00,
2013-03-24 20:59:00,33.1,25.4,29.95,NE,43,3.5,7.0,73,0.00,BKN,SCT,0.00,0.0,WeatherDisplay:10.37,2013-03-24 20:59:00,
2013-03-24 21:04:00,33.0,25.3,29.95,NE,44,5.2,7.0,73,0.00,BKN,SCT,0.00,0.0,WeatherDisplay:10.37,2013-03-24 21:04:00,
2013-03-24 21:09:00,33.1,25.4,29.95,NNE,28,3.5,6.9,73,0.00,BKN,SCT,0.00,0.0,WeatherDisplay:10.37,2013-03-24 21:09:00,
2013-03-24 21:14:00,33.1,25.4,29.95,NE,40,5.3,10.4,73,0.00,BKN,SCT,0.00,0.0,WeatherDisplay:10.37,2013-03-24 21:14:00,
2013-03-24 21:19:00,33.2,25.1,29.95,NE,55,3.1,6.9,72,0.00,BKN,SCT,0.00,0.0,WeatherDisplay:10.37,2013-03-24 21:19:00,
2013-03-24 21:24:00,33.2,25.1,29.95,NNE,22,7.0,9.0,72,0.00,BKN,SCT,0.00,0.0,WeatherDisplay:10.37,2013-03-24 21:24:00,
2013-03-24 21:29:00,33.2,25.1,29.95,NNE,32,7.1,9.2,72,0.00,BKN,SCT,0.00,0.0,WeatherDisplay:10.37,2013-03-24 21:29:00,
2013-03-24 21:34:00,33.3,25.2,29.95,NE,34,3.1,7.0,72,0.00,BKN,SCT,0.00,0.0,WeatherDisplay:10.37,2013-03-24 21:34:00,
2013-03-24 21:39:00,33.3,25.2,29.95,ENE,63,6.7,8.1,72,0.00,BKN,SCT,0.00,0.0,WeatherDisplay:10.37,2013-03-24 21:39:00,
2013-03-24 21:44:00,33.3,25.2,29.95,NNE,26,5.6,10.4,72,0.00,BKN,SCT,0.00,0.0,WeatherDisplay:10.37,2013-03-24 21:44:00,
2013-03-24 21:49:00,33.3,24.9,29.95,NNE,24,5.5,9.2,71,0.00,BKN,SCT,0.00,0.0,WeatherDisplay:10.37,2013-03-24 21:49:00,
2013-03-24 21:54:00,33.3,24.9,29.95,NE,46,5.7,12.7,71,0.00,BKN,SCT,0.00,0.0,WeatherDisplay:10.37,2013-03-24 21:54:00,
2013-03-24 21:59:00,33.4,25.0,29.95,NE,37,7.2,11.5,71,0.00,BKN,SCT,0.00,0.0,WeatherDisplay:10.37,2013-03-24 21:59:00,
2013-03-24 22:04:00,33.4,25.0,29.95,NE,51,8.9,16.0,71,0.00,BKN,SCT,0.00,0.0,WeatherDisplay:10.37,2013-03-24 22:04:00,
2013-03-24 22:09:00,33.4,25.0,29.95,ENE,63,2.0,6.9,71,0.00,BKN,SCT,0.00,0.0,WeatherDisplay:10.37,2013-03-24 22:09:00,
2013-03-24 22:14:00,33.4,25.0,29.95,NNE,30,4.9,8.1,71,0.00,BKN,SCT,0.00,0.0,WeatherDisplay:10.37,2013-03-24 22:14:00,
2013-03-24 22:19:00,33.5,25.1,29.95,NNE,20,5.6,10.4,71,0.00,BKN,SCT,0.00,0.0,WeatherDisplay:10.37,2013-03-24 22:19:00,
2013-03-24 22:24:00,33.5,24.8,29.95,ESE,108,6.2,11.0,70,0.00,BKN,SCT,0.00,0.0,WeatherDisplay:10.37,2013-03-24 22:24:00,
2013-03-24 22:29:00,33.5,25.1,29.95,NE,51,4.6,10.4,71,0.00,BKN,SCT,0.00,0.0,WeatherDisplay:10.37,2013-03-24 22:29:00,
2013-03-24 22:34:00,33.5,24.8,29.95,NE,39,7.1,12.7,70,0.00,BKN,SCT,0.00,0.0,WeatherDisplay:10.37,2013-03-24 22:34:00,
2013-03-24 22:39:00,33.5,25.1,29.94,NE,40,6.8,11.5,71,0.00,BKN,SCT,0.00,0.0,WeatherDisplay:10.37,2013-03-24 22:39:00,
2013-03-24 22:44:00,33.5,24.8,29.95,NE,42,4.4,5.0,70,0.00,BKN,SCT,0.00,0.0,WeatherDisplay:10.37,2013-03-24 22:44:00,
2013-03-24 22:49:00,33.6,25.2,29.95,NE,40,6.7,8.0,71,0.00,BKN,SCT,0.00,0.0,WeatherDisplay:10.37,2013-03-24 22:49:00,
2013-03-24 22:54:00,33.6,24.9,29.95,NE,36,6.1,8.0,70,0.00,BKN,SCT,0.00,0.0,WeatherDisplay:10.37,2013-03-24 22:54:00,
2013-03-24 22:59:00,33.6,24.9,29.95,NE,41,6.8,11.5,70,0.00,BKN,SCT,0.00,0.0,WeatherDisplay:10.37,2013-03-24 22:59:00,
2013-03-24 23:04:00,33.7,25.0,29.95,NNE,24,4.1,9.2,70,0.00,BKN,SCT,0.00,0.0,WeatherDisplay:10.37,2013-03-24 23:04:00,
2013-03-24 23:09:00,33.7,25.0,29.95,East,80,7.3,8.1,70,0.00,BKN,SCT,0.00,0.0,WeatherDisplay:10.37,2013-03-24 23:09:00,
2013-03-24 23:14:00,33.7,25.0,29.95,North,360,3.4,7.0,70,0.00,BKN,SCT,0.00,0.0,WeatherDisplay:10.37,2013-03-24 23:14:00,
2013-03-24 23:19:00,33.7,25.0,29.95,NE,45,5.5,6.9,70,0.00,BKN,SCT,0.00,0.0,WeatherDisplay:10.37,2013-03-24 23:19:00,
2013-03-24 23:24:00,33.8,25.0,29.95,NE,37,6.6,10.4,70,0.00,BKN,SCT,0.00,0.0,WeatherDisplay:10.37,2013-03-24 23:24:00,
2013-03-24 23:29:00,33.8,25.0,29.95,NE,44,3.3,6.0,70,0.00,BKN,SCT,0.00,0.0,WeatherDisplay:10.37,2013-03-24 23:29:00,
2013-03-24 23:34:00,33.8,25.0,29.95,NE,38,5.7,9.2,70,0.00,BKN,SCT,0.00,0.0,WeatherDisplay:10.37,2013-03-24 23:34:00,
2013-03-24 23:39:00,33.8,25.0,29.95,NNE,18,4.8,6.9,70,0.00,BKN,SCT,0.00,0.0,WeatherDisplay:10.37,2013-03-24 23:39:00,
2013-03-24 23:44:00,33.8,24.7,29.95,NE,38,4.7,6.9,69,0.00,BKN,SCT,0.00,0.0,WeatherDisplay:10.37,2013-03-24 23:44:00,
2013-03-24 23:49:00,33.8,24.7,29.95,NE,40,7.4,13.8,69,0.00,BKN,SCT,0.00,0.0,WeatherDisplay:10.37,2013-03-24 23:49:00,
2013-03-24 23:54:00,33.8,25.0,29.95,NNE,28,3.8,8.1,70,0.00,BKN,SCT,0.00,0.0,WeatherDisplay:10.37,2013-03-24 23:54:00,
2013-03-24 23:59:00,33.9,25.1,29.95,NE,34,3.8,5.8,70,0.00,BKN,SCT,0.00,0.0,WeatherDisplay:10.37,2013-03-24 23:59:00,